Terminal Aerodrome Forecast
Issued by NWS Mt. Holly, NJ

Home | Current Version | Previous Version | Text Only | Print | Product List | Glossary On
Versions: 1 2 3 4 5 6 7 8 9 10 11 12 13 14 15 16 17 18 19 20 21 22
042
FTUS41 KPHI 220835 AAA
TAFPHL
TAF AMD
KPHL 220835Z 2209/2312 VRB04KT P6SM FEW050 SCT150 BKN250
     FM221800 23005KT P6SM SCT060 BKN150 PROB30 2221/2303 4SM TSRA
      OVC040CB
     FM230300 28005KT P6SM VCTS OVC050CB PROB30 2305/2306 4SM -TSRA
      OVC015CB
     FM230700 29007KT 6SM BR OVC040=

USA.gov is the U.S. government's official web portal to all federal, state and local government web resources and services.